Destinations Al Massira Airport

Al Massira Airport (GMAD / AGA)

Flights to Al Massira Airport

Flight number From ETE Dispatch
SPY-2232 EGFF Cardiff International Airport 03:30

Flights from Al Massira Airport

Flight number To ETE Dispatch
SPY-2233 EGFF Cardiff International Airport 03:30
About

Al Massira Airport facts

Al Massira Airport is located in Agadir at an elevation of 76.2 meters or 250 feet.

Currently, Speedy Airlines serves 2 flights to and from Al Massira Airport.

Detailed airport info

Route map

Weather

Current weather

METAR

METAR

Metar data retrieved Sunday, 21 July 2024 at 20:25 UTC

GMAD 212000Z 26005KT 8000 NSC 24/19 Q1010 NOSIG
Wind Temperature
5 kt 24c